sensor_id;sensor_type;location;lat;lon;timestamp;P1;durP1;ratioP1;P2;durP2;ratioP2
31618;SDS011;18230;51.502;7.108;2022-10-12T00:02:02;22.73;;;10.13;;
31618;SDS011;18230;51.502;7.108;2022-10-12T00:07:03;23.98;;;11.35;;
31618;SDS011;18230;51.502;7.108;2022-10-12T00:12:04;24.15;;;10.77;;
31618;SDS011;18230;51.502;7.108;2022-10-12T00:17:04;21.40;;;9.05;;
31618;SDS011;18230;51.502;7.108;2022-10-12T00:22:05;20.50;;;10.13;;
31618;SDS011;18230;51.502;7.108;2022-10-12T00:27:06;23.27;;;10.57;;
31618;SDS011;18230;51.502;7.108;2022-10-12T00:32:06;20.60;;;9.13;;
31618;SDS011;18230;51.502;7.108;2022-10-12T00:37:08;18.58;;;9.40;;
31618;SDS011;18230;51.502;7.108;2022-10-12T00:42:12;26.10;;;9.95;;
31618;SDS011;18230;51.502;7.108;2022-10-12T00:52:24;23.80;;;9.77;;
31618;SDS011;18230;51.502;7.108;2022-10-12T00:57:31;24.85;;;9.23;;
31618;SDS011;18230;51.502;7.108;2022-10-12T01:02:33;18.85;;;8.68;;
31618;SDS011;18230;51.502;7.108;2022-10-12T01:07:37;20.90;;;8.57;;
31618;SDS011;18230;51.502;7.108;2022-10-12T01:12:39;26.48;;;9.70;;
31618;SDS011;18230;51.502;7.108;2022-10-12T01:28:01;19.57;;;8.50;;
31618;SDS011;18230;51.502;7.108;2022-10-12T01:43:41;23.67;;;9.45;;
31618;SDS011;18230;51.502;7.108;2022-10-12T01:48:44;16.98;;;8.55;;
31618;SDS011;18230;51.502;7.108;2022-10-12T01:53:49;19.33;;;9.20;;
31618;SDS011;18230;51.502;7.108;2022-10-12T01:59:07;19.17;;;8.75;;
31618;SDS011;18230;51.502;7.108;2022-10-12T02:04:27;18.95;;;8.15;;
31618;SDS011;18230;51.502;7.108;2022-10-12T02:09:32;19.83;;;8.25;;
31618;SDS011;18230;51.502;7.108;2022-10-12T02:14:37;22.33;;;8.98;;
31618;SDS011;18230;51.502;7.108;2022-10-12T02:19:46;19.65;;;8.35;;
31618;SDS011;18230;51.502;7.108;2022-10-12T02:24:57;20.30;;;7.78;;
31618;SDS011;18230;51.502;7.108;2022-10-12T02:29:58;19.83;;;8.57;;
31618;SDS011;18230;51.502;7.108;2022-10-12T02:40:14;17.85;;;9.00;;
31618;SDS011;18230;51.502;7.108;2022-10-12T02:45:21;18.65;;;8.07;;
31618;SDS011;18230;51.502;7.108;2022-10-12T02:50:23;17.80;;;8.23;;
31618;SDS011;18230;51.502;7.108;2022-10-12T02:55:26;16.08;;;7.50;;
31618;SDS011;18230;51.502;7.108;2022-10-12T03:00:31;17.27;;;7.57;;
31618;SDS011;18230;51.502;7.108;2022-10-12T03:05:33;21.40;;;8.43;;
31618;SDS011;18230;51.502;7.108;2022-10-12T03:10:34;19.60;;;8.02;;
31618;SDS011;18230;51.502;7.108;2022-10-12T03:15:34;21.95;;;7.80;;
31618;SDS011;18230;51.502;7.108;2022-10-12T03:20:35;19.30;;;8.13;;
31618;SDS011;18230;51.502;7.108;2022-10-12T03:25:35;17.92;;;7.75;;
31618;SDS011;18230;51.502;7.108;2022-10-12T03:30:36;17.58;;;8.32;;
31618;SDS011;18230;51.502;7.108;2022-10-12T03:35:37;20.67;;;7.53;;
31618;SDS011;18230;51.502;7.108;2022-10-12T03:40:38;16.92;;;7.47;;
31618;SDS011;18230;51.502;7.108;2022-10-12T03:45:39;14.43;;;7.38;;
31618;SDS011;18230;51.502;7.108;2022-10-12T03:50:40;23.05;;;7.55;;
31618;SDS011;18230;51.502;7.108;2022-10-12T03:55:41;18.73;;;7.30;;
31618;SDS011;18230;51.502;7.108;2022-10-12T04:00:41;17.65;;;7.30;;
31618;SDS011;18230;51.502;7.108;2022-10-12T04:05:42;22.27;;;7.55;;
31618;SDS011;18230;51.502;7.108;2022-10-12T04:10:42;15.70;;;6.97;;
31618;SDS011;18230;51.502;7.108;2022-10-12T04:15:43;23.13;;;6.90;;
31618;SDS011;18230;51.502;7.108;2022-10-12T04:20:46;22.58;;;8.07;;
31618;SDS011;18230;51.502;7.108;2022-10-12T04:25:47;20.35;;;7.22;;
31618;SDS011;18230;51.502;7.108;2022-10-12T04:30:48;19.08;;;6.72;;
31618;SDS011;18230;51.502;7.108;2022-10-12T04:35:48;22.55;;;7.75;;
31618;SDS011;18230;51.502;7.108;2022-10-12T04:40:49;17.15;;;6.38;;
31618;SDS011;18230;51.502;7.108;2022-10-12T04:45:56;17.25;;;6.88;;
31618;SDS011;18230;51.502;7.108;2022-10-12T04:50:58;21.40;;;6.93;;
31618;SDS011;18230;51.502;7.108;2022-10-12T04:56:03;15.88;;;6.95;;
31618;SDS011;18230;51.502;7.108;2022-10-12T05:01:04;14.18;;;6.40;;
31618;SDS011;18230;51.502;7.108;2022-10-12T05:06:05;18.65;;;6.63;;
31618;SDS011;18230;51.502;7.108;2022-10-12T05:11:06;18.10;;;7.78;;
31618;SDS011;18230;51.502;7.108;2022-10-12T05:16:07;14.90;;;7.05;;
31618;SDS011;18230;51.502;7.108;2022-10-12T05:21:07;15.90;;;7.68;;
31618;SDS011;18230;51.502;7.108;2022-10-12T05:26:08;16.48;;;6.63;;
31618;SDS011;18230;51.502;7.108;2022-10-12T05:31:09;22.35;;;7.57;;
31618;SDS011;18230;51.502;7.108;2022-10-12T05:36:09;16.23;;;6.43;;
31618;SDS011;18230;51.502;7.108;2022-10-12T05:41:10;16.95;;;7.75;;
31618;SDS011;18230;51.502;7.108;2022-10-12T05:46:11;16.90;;;6.85;;
31618;SDS011;18230;51.502;7.108;2022-10-12T05:51:12;14.82;;;6.43;;
31618;SDS011;18230;51.502;7.108;2022-10-12T05:56:12;16.35;;;7.63;;
31618;SDS011;18230;51.502;7.108;2022-10-12T06:01:13;15.95;;;7.45;;
31618;SDS011;18230;51.502;7.108;2022-10-12T06:06:14;21.30;;;8.57;;
31618;SDS011;18230;51.502;7.108;2022-10-12T06:11:14;17.45;;;7.63;;
31618;SDS011;18230;51.502;7.108;2022-10-12T06:16:15;17.60;;;7.97;;
31618;SDS011;18230;51.502;7.108;2022-10-12T06:21:16;23.90;;;8.57;;
31618;SDS011;18230;51.502;7.108;2022-10-12T06:26:16;25.88;;;10.52;;
31618;SDS011;18230;51.502;7.108;2022-10-12T06:31:17;28.88;;;10.30;;
31618;SDS011;18230;51.502;7.108;2022-10-12T06:36:18;26.52;;;8.82;;
31618;SDS011;18230;51.502;7.108;2022-10-12T06:41:19;30.55;;;9.65;;
31618;SDS011;18230;51.502;7.108;2022-10-12T06:46:20;23.83;;;10.27;;
31618;SDS011;18230;51.502;7.108;2022-10-12T06:51:21;18.05;;;8.88;;
31618;SDS011;18230;51.502;7.108;2022-10-12T06:56:21;18.55;;;7.90;;
31618;SDS011;18230;51.502;7.108;2022-10-12T07:01:22;20.30;;;8.20;;
31618;SDS011;18230;51.502;7.108;2022-10-12T07:06:23;22.77;;;9.57;;
31618;SDS011;18230;51.502;7.108;2022-10-12T07:11:24;22.73;;;8.27;;
31618;SDS011;18230;51.502;7.108;2022-10-12T07:16:24;31.45;;;8.35;;
31618;SDS011;18230;51.502;7.108;2022-10-12T07:21:25;21.45;;;8.70;;
31618;SDS011;18230;51.502;7.108;2022-10-12T07:26:26;20.88;;;8.35;;
31618;SDS011;18230;51.502;7.108;2022-10-12T07:31:26;32.47;;;8.70;;
31618;SDS011;18230;51.502;7.108;2022-10-12T07:36:27;28.23;;;9.23;;
31618;SDS011;18230;51.502;7.108;2022-10-12T07:41:28;22.45;;;8.32;;
31618;SDS011;18230;51.502;7.108;2022-10-12T07:46:28;20.67;;;8.00;;
31618;SDS011;18230;51.502;7.108;2022-10-12T07:51:33;25.02;;;8.70;;
31618;SDS011;18230;51.502;7.108;2022-10-12T07:56:34;23.92;;;8.45;;
31618;SDS011;18230;51.502;7.108;2022-10-12T08:01:35;28.30;;;9.30;;
31618;SDS011;18230;51.502;7.108;2022-10-12T08:06:36;24.77;;;7.80;;
31618;SDS011;18230;51.502;7.108;2022-10-12T08:11:40;20.75;;;8.07;;
31618;SDS011;18230;51.502;7.108;2022-10-12T08:16:41;20.13;;;7.85;;
31618;SDS011;18230;51.502;7.108;2022-10-12T08:21:43;22.17;;;6.57;;
31618;SDS011;18230;51.502;7.108;2022-10-12T08:26:44;22.33;;;6.20;;
31618;SDS011;18230;51.502;7.108;2022-10-12T08:31:45;24.92;;;6.60;;
31618;SDS011;18230;51.502;7.108;2022-10-12T08:36:49;18.95;;;6.18;;
31618;SDS011;18230;51.502;7.108;2022-10-12T08:53:00;15.75;;;6.20;;
31618;SDS011;18230;51.502;7.108;2022-10-12T08:58:22;24.10;;;6.03;;
31618;SDS011;18230;51.502;7.108;2022-10-12T09:03:36;23.05;;;6.57;;
31618;SDS011;18230;51.502;7.108;2022-10-12T09:14:36;25.20;;;8.05;;
31618;SDS011;18230;51.502;7.108;2022-10-12T09:19:36;19.08;;;6.30;;
31618;SDS011;18230;51.502;7.108;2022-10-12T09:24:40;19.65;;;6.22;;
31618;SDS011;18230;51.502;7.108;2022-10-12T09:29:40;13.93;;;5.13;;
31618;SDS011;18230;51.502;7.108;2022-10-12T09:34:47;18.40;;;4.00;;
31618;SDS011;18230;51.502;7.108;2022-10-12T09:39:48;15.43;;;3.35;;
31618;SDS011;18230;51.502;7.108;2022-10-12T09:49:59;10.18;;;2.95;;
31618;SDS011;18230;51.502;7.108;2022-10-12T10:00:21;11.00;;;2.67;;
31618;SDS011;18230;51.502;7.108;2022-10-12T10:10:27;10.60;;;2.38;;
31618;SDS011;18230;51.502;7.108;2022-10-12T10:15:29;11.18;;;3.00;;
31618;SDS011;18230;51.502;7.108;2022-10-12T10:20:44;9.05;;;2.40;;
31618;SDS011;18230;51.502;7.108;2022-10-12T10:26:01;10.30;;;3.30;;
31618;SDS011;18230;51.502;7.108;2022-10-12T10:31:05;10.75;;;2.78;;
31618;SDS011;18230;51.502;7.108;2022-10-12T10:36:23;12.63;;;2.78;;
31618;SDS011;18230;51.502;7.108;2022-10-12T10:41:26;17.92;;;2.60;;
31618;SDS011;18230;51.502;7.108;2022-10-12T10:46:37;10.05;;;3.53;;
31618;SDS011;18230;51.502;7.108;2022-10-12T10:56:50;9.30;;;3.30;;
31618;SDS011;18230;51.502;7.108;2022-10-12T11:01:56;12.40;;;2.75;;
31618;SDS011;18230;51.502;7.108;2022-10-12T11:07:08;9.87;;;3.00;;
31618;SDS011;18230;51.502;7.108;2022-10-12T11:17:39;9.68;;;2.45;;
31618;SDS011;18230;51.502;7.108;2022-10-12T11:22:48;15.55;;;3.33;;
31618;SDS011;18230;51.502;7.108;2022-10-12T11:27:54;9.25;;;2.75;;
31618;SDS011;18230;51.502;7.108;2022-10-12T11:33:10;11.63;;;2.97;;
31618;SDS011;18230;51.502;7.108;2022-10-12T11:43:36;11.43;;;2.92;;
31618;SDS011;18230;51.502;7.108;2022-10-12T11:48:51;8.10;;;2.30;;
31618;SDS011;18230;51.502;7.108;2022-10-12T11:54:07;14.52;;;2.58;;
31618;SDS011;18230;51.502;7.108;2022-10-12T12:05:31;13.05;;;2.33;;
31618;SDS011;18230;51.502;7.108;2022-10-12T12:15:36;9.35;;;2.55;;
31618;SDS011;18230;51.502;7.108;2022-10-12T12:20:59;7.35;;;2.58;;
31618;SDS011;18230;51.502;7.108;2022-10-12T12:31:23;11.88;;;2.53;;
31618;SDS011;18230;51.502;7.108;2022-10-12T12:36:28;7.88;;;2.97;;
31618;SDS011;18230;51.502;7.108;2022-10-12T12:51:55;9.45;;;2.35;;
31618;SDS011;18230;51.502;7.108;2022-10-12T13:08:38;11.25;;;2.97;;
31618;SDS011;18230;51.502;7.108;2022-10-12T13:19:34;11.90;;;2.63;;
31618;SDS011;18230;51.502;7.108;2022-10-12T14:37:41;14.52;;;3.70;;
31618;SDS011;18230;51.502;7.108;2022-10-12T14:42:42;12.50;;;3.75;;
31618;SDS011;18230;51.502;7.108;2022-10-12T14:47:59;12.95;;;4.03;;
31618;SDS011;18230;51.502;7.108;2022-10-12T14:53:02;12.10;;;4.28;;
31618;SDS011;18230;51.502;7.108;2022-10-12T14:58:13;11.50;;;4.13;;
31618;SDS011;18230;51.502;7.108;2022-10-12T15:03:15;10.05;;;4.30;;
31618;SDS011;18230;51.502;7.108;2022-10-12T15:08:16;10.13;;;4.03;;
31618;SDS011;18230;51.502;7.108;2022-10-12T15:13:17;13.57;;;4.05;;
31618;SDS011;18230;51.502;7.108;2022-10-12T15:18:18;12.65;;;4.20;;
31618;SDS011;18230;51.502;7.108;2022-10-12T15:23:18;10.95;;;4.55;;
31618;SDS011;18230;51.502;7.108;2022-10-12T15:28:19;13.38;;;4.50;;
31618;SDS011;18230;51.502;7.108;2022-10-12T15:33:21;11.90;;;4.32;;
31618;SDS011;18230;51.502;7.108;2022-10-12T15:38:23;14.80;;;4.10;;
31618;SDS011;18230;51.502;7.108;2022-10-12T15:43:24;10.93;;;4.15;;
31618;SDS011;18230;51.502;7.108;2022-10-12T15:48:26;11.88;;;5.53;;
31618;SDS011;18230;51.502;7.108;2022-10-12T15:53:27;18.25;;;5.00;;
31618;SDS011;18230;51.502;7.108;2022-10-12T15:58:28;13.38;;;4.38;;
31618;SDS011;18230;51.502;7.108;2022-10-12T16:03:29;14.10;;;4.75;;
31618;SDS011;18230;51.502;7.108;2022-10-12T16:08:30;15.13;;;4.20;;
31618;SDS011;18230;51.502;7.108;2022-10-12T16:13:31;15.73;;;4.60;;
31618;SDS011;18230;51.502;7.108;2022-10-12T16:18:32;14.93;;;4.68;;
31618;SDS011;18230;51.502;7.108;2022-10-12T16:23:34;11.93;;;4.40;;
31618;SDS011;18230;51.502;7.108;2022-10-12T16:28:35;10.85;;;4.90;;
31618;SDS011;18230;51.502;7.108;2022-10-12T16:33:36;12.73;;;5.28;;
31618;SDS011;18230;51.502;7.108;2022-10-12T16:38:38;13.52;;;4.22;;
31618;SDS011;18230;51.502;7.108;2022-10-12T16:44:06;14.02;;;4.82;;
31618;SDS011;18230;51.502;7.108;2022-10-12T16:49:06;17.75;;;6.07;;
31618;SDS011;18230;51.502;7.108;2022-10-12T16:54:07;11.45;;;4.32;;
31618;SDS011;18230;51.502;7.108;2022-10-12T16:59:08;14.85;;;5.80;;
31618;SDS011;18230;51.502;7.108;2022-10-12T17:04:10;16.45;;;7.07;;
31618;SDS011;18230;51.502;7.108;2022-10-12T17:09:16;16.45;;;6.53;;
31618;SDS011;18230;51.502;7.108;2022-10-12T17:14:17;18.05;;;6.90;;
31618;SDS011;18230;51.502;7.108;2022-10-12T17:24:20;18.30;;;7.00;;
31618;SDS011;18230;51.502;7.108;2022-10-12T17:29:25;22.67;;;7.55;;
31618;SDS011;18230;51.502;7.108;2022-10-12T17:34:32;18.55;;;9.52;;
31618;SDS011;18230;51.502;7.108;2022-10-12T17:39:41;21.13;;;10.27;;
31618;SDS011;18230;51.502;7.108;2022-10-12T17:44:43;22.15;;;12.13;;
31618;SDS011;18230;51.502;7.108;2022-10-12T17:49:44;22.80;;;8.73;;
31618;SDS011;18230;51.502;7.108;2022-10-12T17:54:44;15.88;;;7.43;;
31618;SDS011;18230;51.502;7.108;2022-10-12T17:59:45;18.98;;;8.93;;
31618;SDS011;18230;51.502;7.108;2022-10-12T18:04:46;19.55;;;8.35;;
31618;SDS011;18230;51.502;7.108;2022-10-12T18:09:46;17.70;;;8.90;;
31618;SDS011;18230;51.502;7.108;2022-10-12T18:14:47;22.10;;;10.75;;
31618;SDS011;18230;51.502;7.108;2022-10-12T18:19:48;22.83;;;10.50;;
31618;SDS011;18230;51.502;7.108;2022-10-12T18:24:49;24.40;;;11.30;;
31618;SDS011;18230;51.502;7.108;2022-10-12T18:29:49;20.17;;;8.93;;
31618;SDS011;18230;51.502;7.108;2022-10-12T18:34:50;17.17;;;6.22;;
31618;SDS011;18230;51.502;7.108;2022-10-12T18:39:52;14.95;;;6.05;;
31618;SDS011;18230;51.502;7.108;2022-10-12T18:44:55;28.23;;;14.02;;
31618;SDS011;18230;51.502;7.108;2022-10-12T18:49:56;21.52;;;9.50;;
31618;SDS011;18230;51.502;7.108;2022-10-12T18:54:56;20.60;;;9.20;;
31618;SDS011;18230;51.502;7.108;2022-10-12T18:59:57;31.42;;;15.60;;
31618;SDS011;18230;51.502;7.108;2022-10-12T19:04:58;38.80;;;20.85;;
31618;SDS011;18230;51.502;7.108;2022-10-12T19:09:59;29.58;;;15.20;;
31618;SDS011;18230;51.502;7.108;2022-10-12T19:15:00;16.95;;;9.35;;
31618;SDS011;18230;51.502;7.108;2022-10-12T19:20:02;18.13;;;8.50;;
31618;SDS011;18230;51.502;7.108;2022-10-12T19:25:03;20.50;;;9.35;;
31618;SDS011;18230;51.502;7.108;2022-10-12T19:30:04;17.77;;;8.70;;
31618;SDS011;18230;51.502;7.108;2022-10-12T19:35:05;22.88;;;8.65;;
31618;SDS011;18230;51.502;7.108;2022-10-12T19:40:06;21.00;;;11.05;;
31618;SDS011;18230;51.502;7.108;2022-10-12T19:45:11;25.30;;;12.48;;
31618;SDS011;18230;51.502;7.108;2022-10-12T19:50:12;27.52;;;12.75;;
31618;SDS011;18230;51.502;7.108;2022-10-12T19:55:12;22.10;;;10.82;;
31618;SDS011;18230;51.502;7.108;2022-10-12T20:00:13;21.23;;;10.07;;
31618;SDS011;18230;51.502;7.108;2022-10-12T20:05:14;20.58;;;9.48;;
31618;SDS011;18230;51.502;7.108;2022-10-12T20:10:15;20.42;;;10.98;;
31618;SDS011;18230;51.502;7.108;2022-10-12T20:15:16;22.70;;;11.40;;
31618;SDS011;18230;51.502;7.108;2022-10-12T20:20:17;24.65;;;10.52;;
31618;SDS011;18230;51.502;7.108;2022-10-12T20:25:17;25.92;;;11.98;;
31618;SDS011;18230;51.502;7.108;2022-10-12T20:30:18;23.60;;;11.98;;
31618;SDS011;18230;51.502;7.108;2022-10-12T20:35:19;27.45;;;13.18;;
31618;SDS011;18230;51.502;7.108;2022-10-12T20:40:20;31.35;;;15.43;;
31618;SDS011;18230;51.502;7.108;2022-10-12T20:45:21;26.67;;;12.55;;
31618;SDS011;18230;51.502;7.108;2022-10-12T20:50:21;29.75;;;11.95;;
31618;SDS011;18230;51.502;7.108;2022-10-12T20:55:22;25.80;;;14.40;;
31618;SDS011;18230;51.502;7.108;2022-10-12T21:00:23;25.30;;;14.35;;
31618;SDS011;18230;51.502;7.108;2022-10-12T21:05:24;26.00;;;12.13;;
31618;SDS011;18230;51.502;7.108;2022-10-12T21:10:25;30.33;;;13.23;;
31618;SDS011;18230;51.502;7.108;2022-10-12T21:15:25;23.33;;;11.75;;
31618;SDS011;18230;51.502;7.108;2022-10-12T21:20:26;20.92;;;11.93;;
31618;SDS011;18230;51.502;7.108;2022-10-12T21:25:26;23.95;;;11.38;;
31618;SDS011;18230;51.502;7.108;2022-10-12T21:30:27;27.63;;;13.20;;
31618;SDS011;18230;51.502;7.108;2022-10-12T21:35:28;25.85;;;12.80;;
31618;SDS011;18230;51.502;7.108;2022-10-12T21:40:29;28.75;;;13.32;;
31618;SDS011;18230;51.502;7.108;2022-10-12T21:45:31;23.52;;;12.77;;
31618;SDS011;18230;51.502;7.108;2022-10-12T21:50:32;20.58;;;11.57;;
31618;SDS011;18230;51.502;7.108;2022-10-12T21:55:33;21.52;;;12.25;;
31618;SDS011;18230;51.502;7.108;2022-10-12T22:00:33;23.67;;;11.50;;
31618;SDS011;18230;51.502;7.108;2022-10-12T22:05:37;19.23;;;10.77;;
31618;SDS011;18230;51.502;7.108;2022-10-12T22:10:39;24.38;;;12.50;;
31618;SDS011;18230;51.502;7.108;2022-10-12T22:15:40;26.02;;;11.73;;
31618;SDS011;18230;51.502;7.108;2022-10-12T22:20:40;17.27;;;11.02;;
31618;SDS011;18230;51.502;7.108;2022-10-12T22:25:41;21.25;;;11.55;;
31618;SDS011;18230;51.502;7.108;2022-10-12T22:30:42;27.02;;;11.52;;
31618;SDS011;18230;51.502;7.108;2022-10-12T22:35:55;24.80;;;11.95;;
31618;SDS011;18230;51.502;7.108;2022-10-12T22:40:58;24.90;;;12.30;;
31618;SDS011;18230;51.502;7.108;2022-10-12T22:46:00;32.53;;;13.35;;
31618;SDS011;18230;51.502;7.108;2022-10-12T22:51:02;20.55;;;11.80;;
31618;SDS011;18230;51.502;7.108;2022-10-12T22:56:05;20.73;;;12.73;;
31618;SDS011;18230;51.502;7.108;2022-10-12T23:01:09;24.65;;;12.50;;
31618;SDS011;18230;51.502;7.108;2022-10-12T23:06:12;20.50;;;11.73;;
31618;SDS011;18230;51.502;7.108;2022-10-12T23:11:19;21.80;;;12.65;;
31618;SDS011;18230;51.502;7.108;2022-10-12T23:16:23;26.70;;;12.20;;
31618;SDS011;18230;51.502;7.108;2022-10-12T23:21:25;22.75;;;11.85;;
31618;SDS011;18230;51.502;7.108;2022-10-12T23:26:27;24.13;;;12.43;;
31618;SDS011;18230;51.502;7.108;2022-10-12T23:31:28;27.73;;;12.73;;
31618;SDS011;18230;51.502;7.108;2022-10-12T23:36:30;24.58;;;12.93;;
31618;SDS011;18230;51.502;7.108;2022-10-12T23:41:31;28.33;;;12.15;;
31618;SDS011;18230;51.502;7.108;2022-10-12T23:46:32;23.10;;;12.30;;
31618;SDS011;18230;51.502;7.108;2022-10-12T23:51:32;24.25;;;12.50;;
31618;SDS011;18230;51.502;7.108;2022-10-12T23:56:33;29.38;;;12.85;;
